Time;durP1;ratioP1;P1;durP2;ratioP2;P2;SDS_P1;SDS_P2;PMS_P1;PMS_P2;Temp;Humidity;BMP_temperature;BMP_pressure;BME280_temperature;BME280_humidity;BME280_pressure;Samples;Min_cycle;Max_cycle;Signal;HPM_P1;HPM_P2
2022/03/13 00:00:11;;;;;;;22.30;8.88;;;;;;;;;;5033289;28;20188;-71
2022/03/13 00:02:38;;;;;;;24.83;8.60;;;;;;;;;;5032970;28;20180;-72
2022/03/13 00:05:14;;;;;;;20.50;8.90;;;3.20;99.90;;;;;;5033034;28;20181;-72
2022/03/13 00:07:44;;;;;;;16.25;7.25;;;3.20;99.90;;;;;;5033033;28;20168;-72
2022/03/13 00:10:11;;;;;;;18.92;8.73;;;;;;;;;;5033200;28;20213;-72
2022/03/13 00:12:37;;;;;;;17.40;8.38;;;;;;;;;;5021093;28;20252;-72
2022/03/13 00:15:09;;;;;;;19.88;7.95;;;;;;;;;;5013281;28;20630;-72
2022/03/13 00:17:35;;;;;;;18.65;8.90;;;3.10;99.90;;;;;;5013706;28;20640;-72
2022/03/13 00:20:04;;;;;;;21.70;9.07;;;3.10;99.90;;;;;;5019815;28;20185;-72
2022/03/13 00:22:32;;;;;;;22.80;8.30;;;3.10;99.90;;;;;;5019714;28;20196;-72
2022/03/13 00:25:02;;;;;;;22.25;9.50;;;;;;;;;;5024063;28;20196;-72
2022/03/13 00:27:31;;;;;;;22.92;9.00;;;;;;;;;;5018604;28;20181;-72
2022/03/13 00:29:57;;;;;;;20.52;8.88;;;;;;;;;;5023500;28;20173;-72
2022/03/13 00:32:23;;;;;;;19.23;8.23;;;;;;;;;;5023071;28;20180;-72
2022/03/13 00:34:50;;;;;;;20.88;8.88;;;;;;;;;;5022412;28;20181;-72
2022/03/13 00:37:19;;;;;;;18.85;8.60;;;;;;;;;;5016685;28;20192;-72
2022/03/13 00:39:47;;;;;;;17.42;7.90;;;2.90;99.90;;;;;;5016765;28;20248;-71
2022/03/13 00:42:13;;;;;;;18.92;9.05;;;;;;;;;;5015983;28;20187;-72
2022/03/13 00:44:39;;;;;;;19.83;8.65;;;;;;;;;;5016336;28;20263;-72
2022/03/13 00:47:06;;;;;;;17.58;8.50;;;;;;;;;;5016947;28;20169;-75
2022/03/13 00:49:32;;;;;;;23.70;8.77;;;;;;;;;;5003543;28;20181;-76
2022/03/13 00:52:01;;;;;;;20.05;8.95;;;2.70;99.90;;;;;;5024169;28;20703;-76
2022/03/13 00:54:27;;;;;;;20.17;8.45;;;;;;;;;;5021570;28;20646;-76
2022/03/13 00:56:54;;;;;;;16.40;7.40;;;;;;;;;;5016582;28;20220;-75
2022/03/13 00:59:21;;;;;;;21.40;8.20;;;2.70;99.90;;;;;;5016636;28;20180;-76
2022/03/13 01:01:48;;;;;;;18.00;8.93;;;;;;;;;;5016360;28;20178;-72
2022/03/13 01:04:14;;;;;;;20.83;8.95;;;;;;;;;;5016310;28;20697;-72
2022/03/13 01:06:43;;;;;;;21.60;8.57;;;;;;;;;;5017241;28;20181;-72
2022/03/13 01:09:09;;;;;;;19.42;8.75;;;;;;;;;;5016207;28;20230;-72
2022/03/13 01:11:35;;;;;;;21.27;9.17;;;;;;;;;;5022880;28;20192;-72
2022/03/13 01:14:01;;;;;;;18.43;8.30;;;;;;;;;;5035799;28;20470;-72
2022/03/13 01:16:35;;;;;;;19.08;8.90;;;;;;;;;;5043812;28;20494;-76
2022/03/13 01:19:08;;;;;;;22.88;10.52;;;2.60;99.90;;;;;;5035954;28;20168;-75
2022/03/13 01:21:37;;;;;;;19.85;8.65;;;2.60;99.90;;;;;;5030311;28;20680;-75
2022/03/13 01:24:06;;;;;;;16.17;8.13;;;;;;;;;;5034457;28;20234;-75
2022/03/13 01:26:37;;;;;;;17.73;8.27;;;;;;;;;;5042312;28;20184;-76
2022/03/13 01:29:11;;;;;;;16.58;8.02;;;2.50;99.90;;;;;;5035178;28;20222;-76
2022/03/13 01:31:39;;;;;;;25.77;9.82;;;2.50;99.90;;;;;;5029620;28;20198;-72
2022/03/13 01:34:09;;;;;;;25.40;9.18;;;2.50;99.90;;;;;;5018486;28;20199;-72
2022/03/13 01:36:35;;;;;;;21.73;9.52;;;;;;;;;;5031677;28;20192;-72
2022/03/13 01:39:03;;;;;;;28.45;9.90;;;;;;;;;;5035105;28;20713;-72
2022/03/13 01:41:37;;;;;;;24.60;9.30;;;;;;;;;;5039959;28;20195;-72
2022/03/13 01:44:05;;;;;;;20.75;9.05;;;;;;;;;;5036410;28;20187;-72
2022/03/13 01:46:31;;;;;;;21.73;8.93;;;;;;;;;;5035132;28;20168;-72
2022/03/13 01:49:03;;;;;;;18.60;9.23;;;;;;;;;;5021180;28;20210;-72
2022/03/13 01:51:31;;;;;;;23.95;9.90;;;2.30;99.90;;;;;;5034970;28;20499;-72
2022/03/13 01:54:02;;;;;;;20.33;10.05;;;2.30;99.90;;;;;;5034092;28;20218;-72
2022/03/13 01:56:29;;;;;;;20.95;8.98;;;;;;;;;;5035017;28;20251;-72
2022/03/13 01:58:56;;;;;;;22.48;9.50;;;2.20;99.90;;;;;;5034848;28;20191;-72
2022/03/13 02:01:24;;;;;;;21.48;9.70;;;2.20;99.90;;;;;;5035219;28;20180;-72
2022/03/13 02:03:51;;;;;;;21.05;9.10;;;;;;;;;;5034890;28;20637;-72
2022/03/13 02:06:18;;;;;;;22.55;9.43;;;;;;;;;;5016781;28;20626;-72
2022/03/13 02:08:48;;;;;;;22.85;8.95;;;;;;;;;;5035266;28;20531;-72
2022/03/13 02:11:19;;;;;;;17.17;8.45;;;2.00;99.90;;;;;;5035042;28;20271;-72
2022/03/13 02:13:50;;;;;;;19.48;8.40;;;2.00;99.90;;;;;;5031505;28;20544;-72
2022/03/13 02:16:25;;;;;;;26.83;9.05;;;;;;;;;;5034707;28;20203;-72
2022/03/13 02:18:53;;;;;;;24.35;9.45;;;1.90;99.90;;;;;;5039839;28;20179;-75
2022/03/13 02:21:24;;;;;;;19.52;7.97;;;1.90;99.90;;;;;;5035335;28;20183;-76
2022/03/13 02:23:51;;;;;;;17.67;8.20;;;;;;;;;;5046730;28;20183;-76
2022/03/13 02:26:20;;;;;;;19.33;8.85;;;1.80;99.90;;;;;;5034758;28;20179;-76
2022/03/13 02:28:55;;;;;;;17.67;8.18;;;1.70;99.90;;;;;;5016955;28;20532;-75
2022/03/13 02:31:40;;;;;;;20.90;8.88;;;1.80;99.90;;;;;;5043652;28;20257;-75
2022/03/13 02:34:19;;;;;;;20.67;8.73;;;;;;;;;;5033768;28;20192;-75
2022/03/13 02:36:46;;;;;;;23.35;9.98;;;;;;;;;;5034792;28;20199;-75
2022/03/13 02:39:12;;;;;;;18.70;8.52;;;;;;;;;;5034546;28;20255;-76
2022/03/13 02:41:40;;;;;;;21.23;9.05;;;;;;;;;;5042158;28;20176;-75
2022/03/13 02:44:10;;;;;;;18.35;8.57;;;;;;;;;;5033771;28;20179;-75
2022/03/13 02:46:54;;;;;;;24.48;9.18;;;;;;;;;;5034546;28;20181;-73
2022/03/13 02:49:22;;;;;;;22.88;9.35;;;1.60;1.00;;;;;;5042592;28;20182;-72
2022/03/13 02:51:51;;;;;;;21.67;9.68;;;1.60;1.00;;;;;;5034754;28;20195;-72
2022/03/13 02:54:17;;;;;;;17.08;8.80;;;;;;;;;;5026684;28;20214;-72
2022/03/13 02:56:50;;;;;;;19.25;9.13;;;;;;;;;;5035053;28;20648;-72
2022/03/13 02:59:16;;;;;;;20.77;9.05;;;;;;;;;;5036648;28;20655;-72
2022/03/13 03:01:45;;;;;;;22.48;9.27;;;;;;;;;;5033600;28;20180;-72
2022/03/13 03:04:12;;;;;;;21.33;9.55;;;;;;;;;;5033762;28;20183;-76
2022/03/13 03:06:59;;;;;;;25.67;10.15;;;;;;;;;;5034028;28;20176;-76
2022/03/13 03:09:37;;;;;;;23.85;10.25;;;;;;;;;;5032084;28;20633;-76
2022/03/13 03:12:04;;;;;;;20.85;9.70;;;1.70;1.00;;;;;;5026108;28;20227;-75
2022/03/13 03:14:31;;;;;;;19.70;7.75;;;;;;;;;;5014060;28;20199;-75
2022/03/13 03:16:58;;;;;;;18.58;8.45;;;;;;;;;;5017905;28;20231;-72
2022/03/13 03:19:25;;;;;;;17.25;8.75;;;;;;;;;;5020716;28;20211;-76
2022/03/13 03:21:55;;;;;;;21.42;8.82;;;;;;;;;;5017032;28;20633;-75
2022/03/13 03:24:24;;;;;;;17.85;8.30;;;1.30;1.00;;;;;;5015348;28;20643;-75
2022/03/13 03:26:50;;;;;;;18.67;8.68;;;;;;;;;;5014329;28;20195;-75
2022/03/13 03:29:19;;;;;;;18.10;8.45;;;;;;;;;;5013636;28;20181;-75
2022/03/13 03:31:47;;;;;;;21.67;8.93;;;1.30;1.00;;;;;;5001102;28;20200;-76
2022/03/13 03:34:21;;;;;;;16.48;8.52;;;1.30;1.00;;;;;;5000518;28;20304;-75
2022/03/13 03:36:55;;;;;;;17.83;8.23;;;;;;;;;;5008395;28;20660;-75
2022/03/13 03:39:22;;;;;;;24.05;9.07;;;1.30;1.00;;;;;;5013794;28;20195;-75
2022/03/13 03:41:50;;;;;;;18.35;8.52;;;1.30;1.00;;;;;;5004781;28;20231;-76
2022/03/13 03:44:25;;;;;;;24.65;9.63;;;;;;;;;;5009491;28;20580;-76
2022/03/13 03:46:52;;;;;;;17.52;7.72;;;;;;;;;;5013367;28;20230;-75
2022/03/13 03:49:19;;;;;;;21.95;9.30;;;;;;;;;;5013966;28;20538;-75
2022/03/13 03:51:50;;;;;;;18.35;8.60;;;;;;;;;;5023777;28;20625;-75
2022/03/13 03:54:19;;;;;;;19.35;8.95;;;;;;;;;;5018467;28;20192;-75
2022/03/13 03:56:45;;;;;;;19.10;8.75;;;;;;;;;;5017463;28;20215;-75
2022/03/13 03:59:13;;;;;;;18.33;9.05;;;;;;;;;;5007520;28;20625;-75
2022/03/13 04:01:43;;;;;;;19.00;8.80;;;;;;;;;;5037550;28;20160;-76
2022/03/13 04:04:10;;;;;;;17.02;9.05;;;;;;;;;;5018197;28;20181;-75
2022/03/13 04:06:40;;;;;;;16.15;8.23;;;1.10;1.00;;;;;;5005423;28;20708;-75
2022/03/13 04:09:07;;;;;;;21.23;9.63;;;1.10;1.00;;;;;;5019229;28;20598;-75
2022/03/13 04:11:34;;;;;;;17.85;8.88;;;;;;;;;;5036998;28;20205;-75
2022/03/13 04:14:01;;;;;;;17.60;8.95;;;;;;;;;;5036546;28;20211;-75
2022/03/13 04:16:31;;;;;;;18.38;8.18;;;;;;;;;;5037036;28;20169;-75
2022/03/13 04:18:57;;;;;;;17.58;8.90;;;;;;;;;;5040587;28;20180;-75
2022/03/13 04:21:23;;;;;;;19.95;8.15;;;;;;;;;;5041480;28;20173;-75
2022/03/13 04:23:50;;;;;;;19.13;8.15;;;;;;;;;;5042985;28;20173;-75
2022/03/13 04:26:22;;;;;;;20.75;8.68;;;0.90;1.00;;;;;;5036957;28;20165;-75
2022/03/13 04:28:49;;;;;;;16.27;8.05;;;;;;;;;;5042900;28;20215;-75
2022/03/13 04:31:16;;;;;;;17.65;7.80;;;0.90;1.00;;;;;;5036815;28;20188;-76
2022/03/13 04:33:43;;;;;;;18.88;8.02;;;;;;;;;;5042392;28;20536;-75
2022/03/13 04:36:14;;;;;;;18.98;7.90;;;;;;;;;;5036721;28;20180;-75
2022/03/13 04:38:43;;;;;;;24.02;8.48;;;;;;;;;;5040170;28;20637;-75
2022/03/13 04:41:13;;;;;;;18.08;8.20;;;;;;;;;;5036323;28;20172;-76
2022/03/13 04:43:40;;;;;;;20.63;8.07;;;;;;;;;;5036190;28;20645;-76
2022/03/13 04:46:07;;;;;;;23.10;8.13;;;;;;;;;;5036338;28;20222;-76
2022/03/13 04:48:34;;;;;;;26.23;7.70;;;;;;;;;;5037290;28;20172;-72
2022/03/13 04:51:00;;;;;;;21.30;7.65;;;0.90;1.00;;;;;;5018540;28;20527;-72
2022/03/13 04:53:26;;;;;;;18.60;7.95;;;;;;;;;;5035861;28;20203;-72
2022/03/13 04:55:56;;;;;;;15.75;7.60;;;;;;;;;;5036126;28;20169;-72
2022/03/13 04:58:23;;;;;;;17.83;8.00;;;;;;;;;;5034931;28;20196;-72
2022/03/13 05:00:49;;;;;;;14.52;7.30;;;;;;;;;;5036007;28;20180;-72
2022/03/13 05:03:15;;;;;;;18.73;7.50;;;;;;;;;;5035587;28;20242;-75
2022/03/13 05:05:41;;;;;;;17.58;7.50;;;;;;;;;;5035740;28;20180;-75
2022/03/13 05:08:13;;;;;;;18.00;7.75;;;1.00;1.00;;;;;;5036239;28;20272;-75
2022/03/13 05:10:40;;;;;;;18.10;7.60;;;1.00;1.00;;;;;;5036021;28;20180;-75
2022/03/13 05:13:11;;;;;;;22.88;8.32;;;1.00;1.00;;;;;;5035406;28;20235;-76
2022/03/13 05:15:39;;;;;;;16.10;7.22;;;;;;;;;;5035920;28;20657;-75
2022/03/13 05:18:05;;;;;;;14.98;7.03;;;;;;;;;;5036205;28;20657;-75
2022/03/13 05:20:33;;;;;;;15.50;7.43;;;;;;;;;;5041174;28;20192;-75
2022/03/13 05:23:05;;;;;;;16.45;7.20;;;0.90;1.00;;;;;;5040566;28;20180;-75
2022/03/13 05:25:43;;;;;;;23.70;7.47;;;;;;;;;;5041451;28;20241;-75
2022/03/13 05:28:19;;;;;;;16.45;7.45;;;;;;;;;;5051264;28;20180;-75
2022/03/13 05:30:46;;;;;;;15.32;7.70;;;;;;;;;;5037218;28;20164;-75
2022/03/13 05:33:12;;;;;;;16.85;6.82;;;;;;;;;;5035923;28;20192;-72
2022/03/13 05:35:39;;;;;;;15.32;7.53;;;0.90;1.00;;;;;;5035317;28;20195;-72
2022/03/13 05:38:05;;;;;;;15.75;6.93;;;;;;;;;;5035518;28;20259;-72
2022/03/13 05:40:35;;;;;;;18.23;7.68;;;;;;;;;;5035505;28;20269;-72
2022/03/13 05:43:02;;;;;;;17.50;7.60;;;;;;;;;;5035380;28;20173;-72
2022/03/13 05:45:30;;;;;;;21.25;7.80;;;;;;;;;;5034475;28;20176;-72
2022/03/13 05:48:00;;;;;;;14.38;7.20;;;1.00;1.00;;;;;;5034997;28;20176;-72
2022/03/13 05:50:31;;;;;;;22.58;7.88;;;;;;;;;;5052635;28;20687;-75
2022/03/13 05:53:01;;;;;;;14.57;6.93;;;;;;;;;;5039737;28;20268;-75
2022/03/13 05:55:28;;;;;;;14.63;7.75;;;;;;;;;;5032340;28;20177;-75
2022/03/13 05:57:54;;;;;;;17.55;7.35;;;;;;;;;;5035085;28;20199;-75
2022/03/13 06:00:26;;;;;;;13.35;7.40;;;1.00;1.00;;;;;;5035181;28;20184;-75
2022/03/13 06:02:53;;;;;;;15.55;7.53;;;;;;;;;;5035182;28;20204;-75
2022/03/13 06:05:19;;;;;;;16.42;6.80;;;;;;;;;;5017162;28;20181;-72
2022/03/13 06:07:47;;;;;;;13.80;6.30;;;1.10;1.00;;;;;;5036136;28;20187;-72
2022/03/13 06:10:15;;;;;;;15.68;6.90;;;;;;;;;;5034774;28;20194;-72
2022/03/13 06:12:41;;;;;;;17.88;7.55;;;;;;;;;;5034495;28;20699;-72
2022/03/13 06:15:08;;;;;;;26.85;8.32;;;;;;;;;;5040822;28;20187;-72
2022/03/13 06:17:42;;;;;;;19.02;7.35;;;1.20;1.00;;;;;;5016664;28;20575;-72
2022/03/13 06:20:10;;;;;;;14.60;7.30;;;;;;;;;;5034977;28;20215;-72
2022/03/13 06:22:37;;;;;;;20.60;7.80;;;1.20;1.00;;;;;;5021492;28;20168;-72
2022/03/13 06:25:04;;;;;;;18.50;7.38;;;;;;;;;;5033800;28;20188;-72
2022/03/13 06:27:30;;;;;;;14.15;6.80;;;;;;;;;;5034455;28;20173;-72
2022/03/13 06:29:59;;;;;;;15.05;7.43;;;;;;;;;;5017894;28;20536;-72
2022/03/13 06:32:27;;;;;;;12.93;6.85;;;;;;;;;;5034160;28;20176;-72
2022/03/13 06:34:55;;;;;;;18.23;7.90;;;;;;;;;;5034725;28;20221;-75
2022/03/13 06:37:25;;;;;;;15.30;7.78;;;;;;;;;;5037967;28;20187;-76
2022/03/13 06:39:51;;;;;;;17.85;7.57;;;;;;;;;;5038596;28;20593;-75
2022/03/13 06:42:19;;;;;;;18.60;7.55;;;;;;;;;;5038220;28;20186;-75
2022/03/13 06:45:01;;;;;;;24.77;8.02;;;;;;;;;;5015581;28;20649;-77
2022/03/13 06:47:27;;;;;;;17.50;7.55;;;;;;;;;;5033841;28;20169;-76
2022/03/13 06:50:01;;;;;;;15.82;7.65;;;;;;;;;;5034627;28;20168;-83
2022/03/13 06:52:31;;;;;;;11.15;6.88;;;;;;;;;;5033723;28;20177;-80
2022/03/13 06:54:57;;;;;;;17.27;7.85;;;;;;;;;;5022948;28;20613;-74
2022/03/13 06:57:23;;;;;;;15.15;7.70;;;;;;;;;;5033454;28;20180;-75
2022/03/13 06:59:57;;;;;;;21.05;8.00;;;;;;;;;;5041434;28;20202;-75
2022/03/13 07:02:25;;;;;;;18.00;7.05;;;;;;;;;;5033174;28;20162;-75
2022/03/13 07:04:55;;;;;;;15.80;5.78;;;;;;;;;;5038523;28;20180;-75
2022/03/13 07:07:22;;;;;;;15.02;5.60;;;;;;;;;;5028130;28;20176;-75
2022/03/13 07:09:57;;;;;;;14.18;5.93;;;;;;;;;;5033965;28;20172;-74
2022/03/13 07:12:23;;;;;;;14.93;6.68;;;;;;;;;;5033583;28;20195;-74
2022/03/13 07:14:50;;;;;;;16.60;7.35;;;;;;;;;;5033910;28;20560;-75
2022/03/13 07:17:17;;;;;;;18.23;7.63;;;2.80;1.00;;;;;;5015901;28;20184;-75
2022/03/13 07:19:44;;;;;;;16.90;7.15;;;2.90;1.00;;;;;;5034091;28;20160;-73
2022/03/13 07:22:12;;;;;;;11.55;6.20;;;3.10;99.90;;;;;;5032967;28;20267;-73
2022/03/13 07:24:46;;;;;;;24.60;6.65;;;;;;;;;;5033431;28;20180;-72
2022/03/13 07:27:13;;;;;;;14.02;6.35;;;;;;;;;;5036829;28;20258;-73
2022/03/13 07:29:39;;;;;;;15.65;5.22;;;;;;;;;;5028494;28;20172;-73
2022/03/13 07:32:06;;;;;;;8.15;3.72;;;;;;;;;;5042552;28;20671;-73
2022/03/13 07:35:01;;;;;;;9.68;4.55;;;3.90;99.90;;;;;;5033600;28;20188;-76
2022/03/13 07:37:31;;;;;;;10.35;4.10;;;;;;;;;;5033296;28;20227;-75
2022/03/13 07:39:58;;;;;;;22.10;4.55;;;;;;;;;;5020043;28;20188;-75
2022/03/13 07:42:24;;;;;;;14.55;5.03;;;;;;;;;;5033629;28;20172;-75
2022/03/13 07:44:55;;;;;;;11.60;4.70;;;;;;;;;;5033467;28;20173;-75
2022/03/13 07:47:26;;;;;;;13.03;4.50;;;;;;;;;;5032702;28;20632;-75
2022/03/13 07:49:52;;;;;;;12.10;4.93;;;;;;;;;;5033155;28;20906;-72
2022/03/13 07:52:18;;;;;;;10.07;4.80;;;;;;;;;;5033062;28;20415;-72
2022/03/13 07:54:44;;;;;;;14.50;4.67;;;;;;;;;;5033075;28;20545;-73
2022/03/13 07:57:10;;;;;;;8.37;4.03;;;;;;;;;;5032611;28;20468;-72
2022/03/13 07:59:36;;;;;;;11.90;3.97;;;;;;;;;;5034379;28;20795;-73
2022/03/13 08:02:03;;;;;;;12.00;4.70;;;;;;;;;;5032972;28;20411;-73
2022/03/13 08:04:29;;;;;;;8.47;4.57;;;;;;;;;;5033102;28;20473;-73
2022/03/13 08:06:55;;;;;;;12.40;5.17;;;;;;;;;;5032617;28;20485;-72
2022/03/13 08:09:22;;;;;;;14.33;4.90;;;;;;;;;;5032880;28;20434;-73
2022/03/13 08:11:48;;;;;;;17.07;5.50;;;;;;;;;;5032798;28;20442;-73
2022/03/13 08:14:14;;;;;;;22.10;6.17;;;;;;;;;;5014996;28;20457;-72
2022/03/13 08:16:40;;;;;;;18.33;5.97;;;;;;;;;;5032706;28;20475;-73
2022/03/13 08:19:06;;;;;;;10.33;4.47;;;;;;;;;;5032955;28;20421;-72
2022/03/13 08:21:32;;;;;;;26.27;5.30;;;;;;;;;;5033425;28;20418;-78
2022/03/13 08:23:58;;;;;;;9.27;4.87;;;;;;;;;;5015374;28;20415;-76
2022/03/13 08:26:31;;;;;;;9.83;4.40;;;;;;;;;;5033160;28;20958;-86
2022/03/13 08:29:30;;;;;;;11.40;5.10;;;6.50;99.90;;;;;;5032893;28;20782;-84
2022/03/13 08:35:00;;;;;;;14.20;4.70;;;;;;;;;;5022334;28;20437;-78
2022/03/13 08:37:26;;;;;;;10.90;4.37;;;;;;;;;;5032543;28;20422;-77
2022/03/13 08:39:55;;;;;;;13.10;5.53;;;;;;;;;;5035232;28;20784;-76
2022/03/13 08:42:25;;;;;;;18.53;5.63;;;;;;;;;;5036761;28;20900;-75
2022/03/13 08:44:52;;;;;;;7.07;4.50;;;;;;;;;;5036169;28;20415;-79
2022/03/13 08:47:26;;;;;;;14.53;5.70;;;;;;;;;;5018134;28;20454;-79
2022/03/13 08:50:20;;;;;;;9.53;5.10;;;7.10;99.90;;;;;;5036477;28;20726;-80
2022/03/13 08:52:56;;;;;;;11.43;4.97;;;;;;;;;;5023437;28;20450;-82
2022/03/13 08:55:31;;;;;;;13.63;5.40;;;;;;;;;;5036142;28;20414;-79
2022/03/13 08:57:58;;;;;;;18.93;5.87;;;;;;;;;;5030388;28;20457;-79
2022/03/13 09:00:27;;;;;;;10.50;5.50;;;;;;;;;;5036632;28;20409;-79
2022/03/13 09:02:55;;;;;;;8.80;5.13;;;;;;;;;;5036516;28;20461;-80
2022/03/13 09:05:22;;;;;;;13.60;5.50;;;;;;;;;;5036188;28;20427;-80
2022/03/13 09:07:52;;;;;;;251.37;25.30;;;7.70;99.90;;;;;;5030842;28;20427;-81
2022/03/13 09:10:36;;;;;;;47.57;9.33;;;7.90;99.90;;;;;;5041125;28;20443;-80
2022/03/13 09:13:07;;;;;;;11.10;5.40;;;;;;;;;;5022698;28;20471;-80
2022/03/13 09:15:33;;;;;;;10.53;5.03;;;;;;;;;;5035955;28;20392;-82
2022/03/13 09:18:02;;;;;;;8.30;4.70;;;;;;;;;;5035524;28;20427;-81
2022/03/13 09:20:37;;;;;;;11.90;5.77;;;;;;;;;;5047817;28;20446;-79
2022/03/13 09:23:04;;;;;;;7.80;5.10;;;;;;;;;;5055642;28;20390;-80
2022/03/13 09:25:31;;;;;;;17.87;6.53;;;;;;;;;;5043405;28;20419;-75
2022/03/13 09:28:02;;;;;;;12.83;5.40;;;;;;;;;;5039749;28;20471;-76
2022/03/13 09:30:31;;;;;;;17.80;6.70;;;;;;;;;;5054065;28;20419;-75
2022/03/13 09:33:01;;;;;;;19.63;7.30;;;;;;;;;;5034568;28;20930;-76
2022/03/13 09:35:27;;;;;;;16.53;5.97;;;8.80;1.00;;;;;;5041029;28;20422;-77
2022/03/13 09:37:54;;;;;;;15.23;6.20;;;;;;;;;;5035356;28;20880;-76
2022/03/13 09:40:20;;;;;;;15.73;6.00;;;;;;;;;;5035245;28;20447;-76
2022/03/13 09:42:47;;;;;;;15.10;5.90;;;;;;;;;;5035639;28;20446;-76
2022/03/13 09:45:14;;;;;;;17.13;5.80;;;9.20;99.90;;;;;;5026962;28;20410;-76
2022/03/13 09:47:43;;;;;;;10.60;5.87;;;;;;;;;;5035165;28;20415;-76
2022/03/13 09:50:13;;;;;;;21.27;6.63;;;;;;;;;;5036376;28;20854;-76
2022/03/13 09:52:41;;;;;;;22.17;6.37;;;9.30;99.90;;;;;;5035544;28;20414;-73
2022/03/13 09:55:09;;;;;;;15.63;5.87;;;;;;;;;;5035903;28;20423;-73
2022/03/13 09:57:36;;;;;;;17.67;6.63;;;;;;;;;;5043428;28;20423;-73
2022/03/13 10:00:04;;;;;;;19.73;7.27;;;;;;;;;;5036364;28;20506;-73
2022/03/13 10:02:35;;;;;;;21.53;6.13;;;9.90;99.90;;;;;;5034781;28;20416;-73
2022/03/13 10:05:12;;;;;;;13.50;5.80;;;10.00;99.90;;;;;;5034638;28;20891;-73
2022/03/13 10:07:51;;;;;;;14.40;5.43;;;;;;;;;;5034147;28;20775;-76
2022/03/13 10:10:17;;;;;;;14.13;6.00;;;;;;;;;;5043968;28;20818;-75
2022/03/13 10:12:43;;;;;;;16.43;5.93;;;;;;;;;;5034578;28;20835;-75
2022/03/13 10:15:14;;;;;;;17.80;6.77;;;10.20;99.90;;;;;;5046763;28;20438;-75
2022/03/13 10:17:40;;;;;;;20.27;6.37;;;10.40;99.90;;;;;;5037190;28;20936;-75
2022/03/13 10:20:15;;;;;;;23.53;6.90;;;;;;;;;;5025115;28;20476;-75
2022/03/13 10:22:45;;;;;;;12.67;5.77;;;10.60;99.90;;;;;;5029537;28;20990;-75
2022/03/13 10:25:13;;;;;;;16.20;6.07;;;;;;;;;;5033811;28;20421;-75
2022/03/13 10:27:40;;;;;;;17.53;6.80;;;;;;;;;;5033674;28;20390;-75
2022/03/13 10:30:09;;;;;;;14.93;5.77;;;10.80;99.90;;;;;;5033463;28;20919;-75
2022/03/13 10:32:38;;;;;;;16.87;6.67;;;;;;;;;;5033710;28;20434;-75
2022/03/13 10:35:05;;;;;;;18.47;6.53;;;;;;;;;;5033501;28;20502;-75
2022/03/13 10:37:43;;;;;;;13.20;6.17;;;11.00;99.90;;;;;;5033737;28;20439;-74
2022/03/13 10:40:13;;;;;;;25.30;7.17;;;;;;;;;;5033268;28;20414;-75
2022/03/13 10:42:43;;;;;;;16.90;7.00;;;;;;;;;;5033519;28;20394;-75
2022/03/13 10:45:53;;;;;;;18.93;6.87;;;11.20;99.90;;;;;;5033229;28;20384;-75
2022/03/13 10:48:21;;;;;;;19.70;7.50;;;;;;;;;;5033365;28;20905;-75
2022/03/13 10:50:48;;;;;;;11.57;6.10;;;;;;;;;;5033321;28;20390;-75
2022/03/13 10:53:14;;;;;;;18.97;6.60;;;;;;;;;;5032667;28;20494;-72
2022/03/13 10:55:44;;;;;;;12.83;6.17;;;11.50;99.90;;;;;;5033169;28;20415;-72
2022/03/13 10:58:11;;;;;;;17.10;6.30;;;;;;;;;;5026924;28;20398;-73
2022/03/13 11:00:38;;;;;;;16.90;6.77;;;;;;;;;;5015410;28;20405;-73
2022/03/13 11:03:12;;;;;;;20.20;7.23;;;11.70;99.90;;;;;;5032553;28;20922;-73
2022/03/13 11:05:38;;;;;;;16.63;6.97;;;;;;;;;;5033352;28;20808;-73
2022/03/13 11:08:04;;;;;;;19.93;7.53;;;;;;;;;;5033319;28;20386;-73
2022/03/13 11:10:31;;;;;;;15.40;6.53;;;;;;;;;;5033254;28;20431;-73
2022/03/13 11:12:59;;;;;;;13.30;6.20;;;12.20;99.90;;;;;;5032638;28;20528;-73
2022/03/13 11:15:27;;;;;;;14.17;7.40;;;;;;;;;;5032778;28;20385;-73
2022/03/13 11:17:55;;;;;;;15.13;6.63;;;;;;;;;;5032850;28;20843;-73
2022/03/13 11:20:21;;;;;;;12.13;6.60;;;;;;;;;;5032813;28;20750;-73
2022/03/13 11:22:47;;;;;;;14.57;7.03;;;;;;;;;;5033285;28;20469;-75
2022/03/13 11:25:13;;;;;;;16.00;6.80;;;;;;;;;;5032794;28;20813;-75
2022/03/13 11:27:41;;;;;;;20.90;7.40;;;12.40;99.90;;;;;;5032645;28;20747;-75
2022/03/13 11:30:09;;;;;;;15.53;6.63;;;;;;;;;;5032548;28;20389;-75
2022/03/13 11:32:45;;;;;;;13.27;6.90;;;;;;;;;;5032707;28;20887;-75
2022/03/13 11:35:14;;;;;;;17.10;7.30;;;;;;;;;;5032646;28;20418;-75
2022/03/13 11:38:05;;;;;;;12.93;6.33;;;12.80;99.90;;;;;;5032597;28;20438;-75
2022/03/13 11:40:36;;;;;;;17.97;7.17;;;12.80;99.90;;;;;;5032127;28;20882;-75
2022/03/13 11:43:20;;;;;;;21.33;6.73;;;;;;;;;;5032130;28;20762;-75
2022/03/13 11:45:52;;;;;;;27.60;7.97;;;12.90;99.90;;;;;;5026499;28;20401;-81
2022/03/13 11:48:21;;;;;;;22.43;6.43;;;;;;;;;;5032475;28;20415;-80
2022/03/13 11:51:00;;;;;;;20.57;6.90;;;13.20;99.90;;;;;;5029420;28;20401;-81
2022/03/13 11:53:28;;;;;;;22.30;7.60;;;13.50;99.90;;;;;;5032296;28;20481;-81
2022/03/13 11:56:00;;;;;;;20.73;8.00;;;;;;;;;;5032437;28;20447;-80
2022/03/13 11:58:41;;;;;;;15.83;7.70;;;13.70;99.90;;;;;;5040054;28;20488;-80
2022/03/13 12:01:08;;;;;;;22.27;7.73;;;;;;;;;;5014700;28;20795;-80
2022/03/13 12:03:34;;;;;;;21.87;8.03;;;;;;;;;;5032156;28;20392;-81
2022/03/13 12:06:00;;;;;;;14.13;6.70;;;;;;;;;;5032105;28;20505;-81
2022/03/13 12:08:45;;;;;;;15.20;7.23;;;;;;;;;;5019304;28;20425;-80
2022/03/13 12:11:38;;;;;;;13.80;7.00;;;14.10;99.90;;;;;;5031201;28;20463;-79
2022/03/13 12:14:08;;;;;;;21.80;8.47;;;;;;;;;;4940133;28;20457;-81
2022/03/13 12:16:38;;;;;;;22.20;8.27;;;;;;;;;;4935001;29;20962;-78
2022/03/13 12:19:05;;;;;;;21.27;7.77;;;;;;;;;;4936409;29;20750;-78
2022/03/13 12:21:32;;;;;;;15.63;7.53;;;14.50;99.90;;;;;;4937740;29;20463;-81
2022/03/13 12:24:20;;;;;;;22.53;8.00;;;14.60;99.90;;;;;;4936970;29;20718;-72
2022/03/13 12:26:50;;;;;;;21.47;7.53;;;14.60;99.90;;;;;;4945177;29;20514;-73
2022/03/13 12:29:17;;;;;;;15.17;7.37;;;14.60;99.90;;;;;;4923886;29;20390;-76
2022/03/13 12:31:48;;;;;;;19.07;8.03;;;14.60;99.90;;;;;;4937506;29;20528;-79
2022/03/13 12:34:27;;;;;;;17.57;8.17;;;14.60;99.90;;;;;;4936496;29;20533;-79
2022/03/13 12:36:58;;;;;;;20.90;8.87;;;;;;;;;;4935498;29;20435;-79
2022/03/13 12:39:24;;;;;;;27.70;8.97;;;;;;;;;;4920664;29;20850;-78
2022/03/13 12:41:58;;;;;;;16.93;8.77;;;14.60;99.90;;;;;;4935862;29;20943;-77
2022/03/13 12:44:24;;;;;;;19.60;8.17;;;;;;;;;;4938645;29;20441;-78
2022/03/13 12:46:52;;;;;;;34.40;9.37;;;;;;;;;;4934253;29;20427;-78
2022/03/13 12:49:19;;;;;;;21.90;8.60;;;;;;;;;;4935522;29;20414;-78
2022/03/13 12:51:51;;;;;;;18.00;8.37;;;;;;;;;;5014964;28;20901;-78
2022/03/13 12:54:20;;;;;;;21.53;9.30;;;;;;;;;;5035755;28;20481;-78
2022/03/13 12:56:50;;;;;;;16.40;7.67;;;;;;;;;;5035197;28;20427;-78
2022/03/13 12:59:33;;;;;;;16.57;7.60;;;15.20;99.90;;;;;;5035531;28;20415;-78
2022/03/13 13:02:14;;;;;;;15.33;8.50;;;;;;;;;;5028179;28;20903;-78
2022/03/13 13:04:44;;;;;;;22.40;8.70;;;15.50;99.90;;;;;;5035424;28;20784;-78
2022/03/13 13:07:11;;;;;;;23.57;8.93;;;15.70;99.90;;;;;;5037259;28;20412;-78
2022/03/13 13:09:38;;;;;;;45.10;10.73;;;;;;;;;;5039365;28;20417;-76
2022/03/13 13:12:07;;;;;;;24.70;8.63;;;;;;;;;;5041830;28;20450;-76
2022/03/13 13:14:33;;;;;;;22.97;9.10;;;;;;;;;;5045764;28;20474;-76
2022/03/13 13:17:00;;;;;;;22.83;9.07;;;;;;;;;;5034749;28;20431;-76
2022/03/13 13:19:26;;;;;;;17.70;8.17;;;16.00;99.90;;;;;;5035102;28;20411;-76
2022/03/13 13:22:00;;;;;;;19.13;8.73;;;16.00;99.90;;;;;;5043988;28;20433;-76
2022/03/13 13:24:59;;;;;;;19.50;8.43;;;16.00;99.90;;;;;;5019117;28;20438;-76
2022/03/13 13:27:51;;;;;;;22.97;9.20;;;16.00;99.90;;;;;;4954435;28;20450;-76
2022/03/13 13:30:19;;;;;;;20.93;9.03;;;;;;;;;;4958411;28;20456;-76
2022/03/13 13:32:49;;;;;;;17.90;8.90;;;16.40;99.90;;;;;;4955225;29;20423;-73
2022/03/13 13:35:23;;;;;;;22.20;9.27;;;16.70;99.90;;;;;;4955262;29;20426;-73
2022/03/13 13:38:01;;;;;;;18.43;9.10;;;;;;;;;;4938069;29;20799;-73
2022/03/13 13:40:48;;;;;;;17.20;8.90;;;17.00;99.90;;;;;;4955206;29;20466;-76
2022/03/13 13:43:17;;;;;;;16.37;8.93;;;;;;;;;;4959996;28;20415;-77
2022/03/13 13:45:46;;;;;;;26.73;9.00;;;17.30;99.90;;;;;;4962355;28;20525;-77
2022/03/13 13:48:30;;;;;;;33.33;10.93;;;17.10;99.90;;;;;;4956213;28;20428;-77
2022/03/13 13:51:15;;;;;;;22.50;10.13;;;;;;;;;;4955454;29;20825;-77
2022/03/13 13:54:02;;;;;;;21.17;10.00;;;17.30;99.90;;;;;;4938808;29;20457;-77
2022/03/13 13:56:58;;;;;;;27.10;9.90;;;;;;;;;;4954645;29;20510;-77
2022/03/13 13:59:24;;;;;;;24.63;11.00;;;;;;;;;;4911874;29;20434;-77
2022/03/13 14:02:14;;;;;;;828.40;345.80;;;;;;;;;;4915533;29;20850;-77
2022/03/13 14:04:42;;;;;;;614.27;194.23;;;17.70;99.90;;;;;;4965619;28;20196;-77
2022/03/13 14:07:09;;;;;;;21.17;10.40;;;17.70;99.90;;;;;;4972529;28;20466;-77
2022/03/13 14:09:35;;;;;;;24.07;10.23;;;;;;;;;;4973315;28;20636;-74
2022/03/13 14:12:02;;;;;;;19.10;9.70;;;;;;;;;;4956576;28;20530;-74
2022/03/13 14:14:28;;;;;;;23.67;10.40;;;;;;;;;;4972928;28;20464;-74